sensor_id;sensor_type;location;lat;lon;timestamp;P1;durP1;ratioP1;P2;durP2;ratioP2
19059;SDS011;9663;48.996;8.334;2024-01-27T00:01:49;3.17;;;1.08;;
19059;SDS011;9663;48.996;8.334;2024-01-27T00:04:15;5.03;;;1.35;;
19059;SDS011;9663;48.996;8.334;2024-01-27T00:06:41;3.15;;;1.08;;
19059;SDS011;9663;48.996;8.334;2024-01-27T00:09:07;3.67;;;1.15;;
19059;SDS011;9663;48.996;8.334;2024-01-27T00:11:33;3.63;;;1.20;;
19059;SDS011;9663;48.996;8.334;2024-01-27T00:13:58;4.25;;;1.15;;
19059;SDS011;9663;48.996;8.334;2024-01-27T00:16:24;3.25;;;1.30;;
19059;SDS011;9663;48.996;8.334;2024-01-27T00:18:50;3.53;;;1.25;;
19059;SDS011;9663;48.996;8.334;2024-01-27T00:21:16;3.53;;;1.05;;
19059;SDS011;9663;48.996;8.334;2024-01-27T00:23:41;3.63;;;1.33;;
19059;SDS011;9663;48.996;8.334;2024-01-27T00:26:07;3.47;;;1.33;;
19059;SDS011;9663;48.996;8.334;2024-01-27T00:28:33;4.03;;;1.38;;
19059;SDS011;9663;48.996;8.334;2024-01-27T00:30:58;3.97;;;1.50;;
19059;SDS011;9663;48.996;8.334;2024-01-27T00:33:24;2.97;;;1.30;;
19059;SDS011;9663;48.996;8.334;2024-01-27T00:35:51;4.13;;;1.75;;
19059;SDS011;9663;48.996;8.334;2024-01-27T00:38:17;4.53;;;1.58;;
19059;SDS011;9663;48.996;8.334;2024-01-27T00:40:42;2.80;;;1.27;;
19059;SDS011;9663;48.996;8.334;2024-01-27T00:43:08;3.50;;;1.48;;
19059;SDS011;9663;48.996;8.334;2024-01-27T00:45:34;4.80;;;1.60;;
19059;SDS011;9663;48.996;8.334;2024-01-27T00:47:59;3.50;;;1.30;;
19059;SDS011;9663;48.996;8.334;2024-01-27T00:50:26;3.35;;;1.27;;
19059;SDS011;9663;48.996;8.334;2024-01-27T00:52:52;2.80;;;1.13;;
19059;SDS011;9663;48.996;8.334;2024-01-27T00:55:17;3.08;;;1.10;;
19059;SDS011;9663;48.996;8.334;2024-01-27T00:57:43;3.33;;;1.30;;
19059;SDS011;9663;48.996;8.334;2024-01-27T01:00:09;3.17;;;1.23;;
19059;SDS011;9663;48.996;8.334;2024-01-27T01:02:36;4.00;;;1.50;;
19059;SDS011;9663;48.996;8.334;2024-01-27T01:05:03;3.33;;;1.10;;
19059;SDS011;9663;48.996;8.334;2024-01-27T01:07:30;4.43;;;1.30;;
19059;SDS011;9663;48.996;8.334;2024-01-27T01:09:56;3.35;;;1.27;;
19059;SDS011;9663;48.996;8.334;2024-01-27T01:12:22;3.25;;;1.17;;
19059;SDS011;9663;48.996;8.334;2024-01-27T01:14:48;3.65;;;1.45;;
19059;SDS011;9663;48.996;8.334;2024-01-27T01:17:14;3.88;;;1.38;;
19059;SDS011;9663;48.996;8.334;2024-01-27T01:19:40;4.57;;;1.30;;
19059;SDS011;9663;48.996;8.334;2024-01-27T01:22:06;3.35;;;1.52;;
19059;SDS011;9663;48.996;8.334;2024-01-27T01:24:33;3.35;;;1.50;;
19059;SDS011;9663;48.996;8.334;2024-01-27T01:26:59;3.75;;;1.50;;
19059;SDS011;9663;48.996;8.334;2024-01-27T01:29:25;3.53;;;1.40;;
19059;SDS011;9663;48.996;8.334;2024-01-27T01:31:51;2.72;;;1.23;;
19059;SDS011;9663;48.996;8.334;2024-01-27T01:34:17;4.28;;;1.30;;
19059;SDS011;9663;48.996;8.334;2024-01-27T01:36:43;4.28;;;1.30;;
19059;SDS011;9663;48.996;8.334;2024-01-27T01:39:09;3.65;;;1.30;;
19059;SDS011;9663;48.996;8.334;2024-01-27T01:41:36;3.40;;;1.27;;
19059;SDS011;9663;48.996;8.334;2024-01-27T01:44:02;3.20;;;1.15;;
19059;SDS011;9663;48.996;8.334;2024-01-27T01:46:27;3.83;;;1.33;;
19059;SDS011;9663;48.996;8.334;2024-01-27T01:48:53;3.30;;;1.27;;
19059;SDS011;9663;48.996;8.334;2024-01-27T01:51:19;3.97;;;1.50;;
19059;SDS011;9663;48.996;8.334;2024-01-27T01:53:47;2.88;;;1.30;;
19059;SDS011;9663;48.996;8.334;2024-01-27T01:56:14;3.47;;;1.50;;
19059;SDS011;9663;48.996;8.334;2024-01-27T01:58:40;3.45;;;1.35;;
19059;SDS011;9663;48.996;8.334;2024-01-27T02:01:07;3.42;;;1.52;;
19059;SDS011;9663;48.996;8.334;2024-01-27T02:03:33;3.88;;;1.30;;
19059;SDS011;9663;48.996;8.334;2024-01-27T02:05:58;3.90;;;1.35;;
19059;SDS011;9663;48.996;8.334;2024-01-27T02:08:24;3.08;;;1.17;;
19059;SDS011;9663;48.996;8.334;2024-01-27T02:10:50;3.30;;;1.30;;
19059;SDS011;9663;48.996;8.334;2024-01-27T02:13:19;4.03;;;1.38;;
19059;SDS011;9663;48.996;8.334;2024-01-27T02:15:47;3.90;;;1.42;;
19059;SDS011;9663;48.996;8.334;2024-01-27T02:18:15;5.28;;;1.40;;
19059;SDS011;9663;48.996;8.334;2024-01-27T02:20:41;4.88;;;1.52;;
19059;SDS011;9663;48.996;8.334;2024-01-27T02:23:07;3.67;;;1.10;;
19059;SDS011;9663;48.996;8.334;2024-01-27T02:25:34;3.65;;;1.45;;
19059;SDS011;9663;48.996;8.334;2024-01-27T02:28:00;2.60;;;1.15;;
19059;SDS011;9663;48.996;8.334;2024-01-27T02:30:29;3.03;;;1.17;;
19059;SDS011;9663;48.996;8.334;2024-01-27T02:32:56;3.50;;;1.30;;
19059;SDS011;9663;48.996;8.334;2024-01-27T02:35:23;4.00;;;1.48;;
19059;SDS011;9663;48.996;8.334;2024-01-27T02:37:49;3.35;;;1.30;;
19059;SDS011;9663;48.996;8.334;2024-01-27T02:40:15;3.67;;;1.40;;
19059;SDS011;9663;48.996;8.334;2024-01-27T02:42:41;4.28;;;1.45;;
19059;SDS011;9663;48.996;8.334;2024-01-27T02:45:07;4.38;;;1.50;;
19059;SDS011;9663;48.996;8.334;2024-01-27T02:47:33;5.13;;;1.73;;
19059;SDS011;9663;48.996;8.334;2024-01-27T02:49:59;3.88;;;1.58;;
19059;SDS011;9663;48.996;8.334;2024-01-27T02:52:25;4.05;;;1.50;;
19059;SDS011;9663;48.996;8.334;2024-01-27T02:54:53;5.95;;;1.70;;
19059;SDS011;9663;48.996;8.334;2024-01-27T02:57:19;2.85;;;1.10;;
19059;SDS011;9663;48.996;8.334;2024-01-27T02:59:48;4.18;;;1.30;;
19059;SDS011;9663;48.996;8.334;2024-01-27T03:02:14;3.67;;;1.40;;
19059;SDS011;9663;48.996;8.334;2024-01-27T03:04:41;4.78;;;1.40;;
19059;SDS011;9663;48.996;8.334;2024-01-27T03:07:06;3.58;;;1.30;;
19059;SDS011;9663;48.996;8.334;2024-01-27T03:09:32;3.28;;;1.17;;
19059;SDS011;9663;48.996;8.334;2024-01-27T03:11:58;3.65;;;1.40;;
19059;SDS011;9663;48.996;8.334;2024-01-27T03:14:24;3.40;;;1.30;;
19059;SDS011;9663;48.996;8.334;2024-01-27T03:16:50;4.47;;;1.40;;
19059;SDS011;9663;48.996;8.334;2024-01-27T03:19:16;3.25;;;1.17;;
19059;SDS011;9663;48.996;8.334;2024-01-27T03:21:42;4.38;;;1.30;;
19059;SDS011;9663;48.996;8.334;2024-01-27T03:24:08;3.22;;;1.10;;
19059;SDS011;9663;48.996;8.334;2024-01-27T03:26:33;3.63;;;1.20;;
19059;SDS011;9663;48.996;8.334;2024-01-27T03:28:59;3.35;;;1.13;;
19059;SDS011;9663;48.996;8.334;2024-01-27T03:31:31;3.17;;;1.20;;
19059;SDS011;9663;48.996;8.334;2024-01-27T03:33:59;3.72;;;1.13;;
19059;SDS011;9663;48.996;8.334;2024-01-27T03:36:25;3.90;;;1.40;;
19059;SDS011;9663;48.996;8.334;2024-01-27T03:38:51;3.78;;;1.40;;
19059;SDS011;9663;48.996;8.334;2024-01-27T03:41:17;3.40;;;1.40;;
19059;SDS011;9663;48.996;8.334;2024-01-27T03:43:43;3.38;;;1.10;;
19059;SDS011;9663;48.996;8.334;2024-01-27T03:46:09;2.72;;;1.17;;
19059;SDS011;9663;48.996;8.334;2024-01-27T03:48:34;3.33;;;1.35;;
19059;SDS011;9663;48.996;8.334;2024-01-27T03:51:00;3.60;;;1.20;;
19059;SDS011;9663;48.996;8.334;2024-01-27T03:53:26;3.53;;;1.10;;
19059;SDS011;9663;48.996;8.334;2024-01-27T03:55:52;2.85;;;1.13;;
19059;SDS011;9663;48.996;8.334;2024-01-27T03:58:18;2.25;;;0.98;;
19059;SDS011;9663;48.996;8.334;2024-01-27T04:00:44;3.03;;;1.20;;
19059;SDS011;9663;48.996;8.334;2024-01-27T04:03:10;3.03;;;0.93;;
19059;SDS011;9663;48.996;8.334;2024-01-27T04:05:36;2.83;;;1.05;;
19059;SDS011;9663;48.996;8.334;2024-01-27T04:08:02;2.75;;;1.20;;
19059;SDS011;9663;48.996;8.334;2024-01-27T04:10:29;3.25;;;1.20;;
19059;SDS011;9663;48.996;8.334;2024-01-27T04:12:55;3.28;;;0.90;;
19059;SDS011;9663;48.996;8.334;2024-01-27T04:15:21;2.95;;;1.10;;
19059;SDS011;9663;48.996;8.334;2024-01-27T04:17:46;2.95;;;1.02;;
19059;SDS011;9663;48.996;8.334;2024-01-27T04:20:12;3.20;;;1.20;;
19059;SDS011;9663;48.996;8.334;2024-01-27T04:22:38;1.90;;;0.80;;
19059;SDS011;9663;48.996;8.334;2024-01-27T04:25:04;2.63;;;1.10;;
19059;SDS011;9663;48.996;8.334;2024-01-27T04:27:32;3.97;;;1.25;;
19059;SDS011;9663;48.996;8.334;2024-01-27T04:30:05;2.92;;;0.90;;
19059;SDS011;9663;48.996;8.334;2024-01-27T04:32:32;3.35;;;1.17;;
19059;SDS011;9663;48.996;8.334;2024-01-27T04:34:58;2.67;;;1.00;;
19059;SDS011;9663;48.996;8.334;2024-01-27T04:37:23;3.22;;;1.10;;
19059;SDS011;9663;48.996;8.334;2024-01-27T04:39:49;4.15;;;1.10;;
19059;SDS011;9663;48.996;8.334;2024-01-27T04:42:15;2.53;;;0.90;;
19059;SDS011;9663;48.996;8.334;2024-01-27T04:44:41;3.60;;;1.08;;
19059;SDS011;9663;48.996;8.334;2024-01-27T04:47:07;2.78;;;1.10;;
19059;SDS011;9663;48.996;8.334;2024-01-27T04:49:33;2.92;;;1.10;;
19059;SDS011;9663;48.996;8.334;2024-01-27T04:51:58;3.60;;;1.10;;
19059;SDS011;9663;48.996;8.334;2024-01-27T04:54:24;2.95;;;1.27;;
19059;SDS011;9663;48.996;8.334;2024-01-27T04:56:50;2.40;;;0.95;;
19059;SDS011;9663;48.996;8.334;2024-01-27T04:59:16;2.88;;;1.17;;
19059;SDS011;9663;48.996;8.334;2024-01-27T05:01:45;3.35;;;1.17;;
19059;SDS011;9663;48.996;8.334;2024-01-27T05:04:11;2.60;;;1.00;;
19059;SDS011;9663;48.996;8.334;2024-01-27T05:06:37;3.33;;;1.10;;
19059;SDS011;9663;48.996;8.334;2024-01-27T05:09:04;2.72;;;1.00;;
19059;SDS011;9663;48.996;8.334;2024-01-27T05:11:31;3.08;;;1.13;;
19059;SDS011;9663;48.996;8.334;2024-01-27T05:14:00;3.72;;;1.20;;
19059;SDS011;9663;48.996;8.334;2024-01-27T05:16:27;3.38;;;1.15;;
19059;SDS011;9663;48.996;8.334;2024-01-27T05:18:53;3.75;;;1.40;;
19059;SDS011;9663;48.996;8.334;2024-01-27T05:21:19;3.45;;;1.17;;
19059;SDS011;9663;48.996;8.334;2024-01-27T05:23:45;3.58;;;1.25;;
19059;SDS011;9663;48.996;8.334;2024-01-27T05:26:10;2.40;;;0.98;;
19059;SDS011;9663;48.996;8.334;2024-01-27T05:28:40;3.83;;;1.13;;
19059;SDS011;9663;48.996;8.334;2024-01-27T05:31:09;3.45;;;1.10;;
19059;SDS011;9663;48.996;8.334;2024-01-27T05:33:35;3.70;;;1.20;;
19059;SDS011;9663;48.996;8.334;2024-01-27T05:36:01;2.88;;;1.00;;
19059;SDS011;9663;48.996;8.334;2024-01-27T05:38:27;2.55;;;1.02;;
19059;SDS011;9663;48.996;8.334;2024-01-27T05:40:55;3.20;;;1.20;;
19059;SDS011;9663;48.996;8.334;2024-01-27T05:43:20;3.53;;;1.30;;
19059;SDS011;9663;48.996;8.334;2024-01-27T05:45:47;3.38;;;1.20;;
19059;SDS011;9663;48.996;8.334;2024-01-27T05:48:14;2.85;;;1.15;;
19059;SDS011;9663;48.996;8.334;2024-01-27T05:50:41;4.10;;;1.10;;
19059;SDS011;9663;48.996;8.334;2024-01-27T05:53:08;3.00;;;1.20;;
19059;SDS011;9663;48.996;8.334;2024-01-27T05:55:33;3.28;;;0.90;;
19059;SDS011;9663;48.996;8.334;2024-01-27T05:57:59;3.13;;;1.00;;
19059;SDS011;9663;48.996;8.334;2024-01-27T06:00:25;2.95;;;1.10;;
19059;SDS011;9663;48.996;8.334;2024-01-27T06:02:50;2.38;;;1.00;;
19059;SDS011;9663;48.996;8.334;2024-01-27T06:05:16;2.60;;;0.98;;
19059;SDS011;9663;48.996;8.334;2024-01-27T06:07:42;3.28;;;1.10;;
19059;SDS011;9663;48.996;8.334;2024-01-27T06:10:08;3.47;;;1.40;;
19059;SDS011;9663;48.996;8.334;2024-01-27T06:12:35;3.00;;;1.13;;
19059;SDS011;9663;48.996;8.334;2024-01-27T06:15:02;3.40;;;1.30;;
19059;SDS011;9663;48.996;8.334;2024-01-27T06:17:29;3.25;;;1.23;;
19059;SDS011;9663;48.996;8.334;2024-01-27T06:19:54;3.58;;;1.38;;
19059;SDS011;9663;48.996;8.334;2024-01-27T06:22:20;3.42;;;1.20;;
19059;SDS011;9663;48.996;8.334;2024-01-27T06:24:46;3.83;;;1.30;;
19059;SDS011;9663;48.996;8.334;2024-01-27T06:27:11;4.32;;;1.20;;
19059;SDS011;9663;48.996;8.334;2024-01-27T06:29:37;3.53;;;1.20;;
19059;SDS011;9663;48.996;8.334;2024-01-27T06:32:03;3.08;;;1.23;;
19059;SDS011;9663;48.996;8.334;2024-01-27T06:34:29;3.38;;;1.20;;
19059;SDS011;9663;48.996;8.334;2024-01-27T06:36:55;3.17;;;1.20;;
19059;SDS011;9663;48.996;8.334;2024-01-27T06:39:20;3.28;;;1.35;;
19059;SDS011;9663;48.996;8.334;2024-01-27T06:41:46;8.07;;;1.50;;
19059;SDS011;9663;48.996;8.334;2024-01-27T06:44:12;4.53;;;1.40;;
19059;SDS011;9663;48.996;8.334;2024-01-27T06:46:38;4.03;;;1.20;;
19059;SDS011;9663;48.996;8.334;2024-01-27T06:49:04;3.97;;;1.25;;
19059;SDS011;9663;48.996;8.334;2024-01-27T06:51:29;3.33;;;1.10;;
19059;SDS011;9663;48.996;8.334;2024-01-27T06:53:55;2.70;;;0.95;;
19059;SDS011;9663;48.996;8.334;2024-01-27T06:56:21;3.78;;;1.20;;
19059;SDS011;9663;48.996;8.334;2024-01-27T06:58:46;3.45;;;1.30;;
19059;SDS011;9663;48.996;8.334;2024-01-27T07:01:12;2.42;;;1.00;;
19059;SDS011;9663;48.996;8.334;2024-01-27T07:03:37;3.40;;;1.38;;
19059;SDS011;9663;48.996;8.334;2024-01-27T07:06:04;3.45;;;1.00;;
19059;SDS011;9663;48.996;8.334;2024-01-27T07:08:30;2.67;;;1.05;;
19059;SDS011;9663;48.996;8.334;2024-01-27T07:10:57;3.00;;;1.08;;
19059;SDS011;9663;48.996;8.334;2024-01-27T07:13:23;4.00;;;1.35;;
19059;SDS011;9663;48.996;8.334;2024-01-27T07:15:49;2.78;;;1.10;;
19059;SDS011;9663;48.996;8.334;2024-01-27T07:18:14;3.38;;;1.17;;
19059;SDS011;9663;48.996;8.334;2024-01-27T07:20:42;3.38;;;1.20;;
19059;SDS011;9663;48.996;8.334;2024-01-27T07:23:08;3.28;;;1.10;;
19059;SDS011;9663;48.996;8.334;2024-01-27T07:25:33;3.05;;;1.10;;
19059;SDS011;9663;48.996;8.334;2024-01-27T07:27:59;2.47;;;1.00;;
19059;SDS011;9663;48.996;8.334;2024-01-27T07:30:25;3.33;;;1.33;;
19059;SDS011;9663;48.996;8.334;2024-01-27T07:32:50;3.28;;;1.30;;
19059;SDS011;9663;48.996;8.334;2024-01-27T07:35:16;3.42;;;1.40;;
19059;SDS011;9663;48.996;8.334;2024-01-27T07:37:42;3.42;;;1.20;;
19059;SDS011;9663;48.996;8.334;2024-01-27T07:40:08;3.58;;;1.23;;
19059;SDS011;9663;48.996;8.334;2024-01-27T07:42:35;3.97;;;1.38;;
19059;SDS011;9663;48.996;8.334;2024-01-27T07:45:01;4.38;;;1.50;;
19059;SDS011;9663;48.996;8.334;2024-01-27T07:47:27;4.60;;;1.58;;
19059;SDS011;9663;48.996;8.334;2024-01-27T07:49:52;4.53;;;1.40;;
19059;SDS011;9663;48.996;8.334;2024-01-27T07:52:18;3.60;;;1.20;;
19059;SDS011;9663;48.996;8.334;2024-01-27T07:54:44;2.83;;;1.20;;
19059;SDS011;9663;48.996;8.334;2024-01-27T07:57:10;3.78;;;1.30;;
19059;SDS011;9663;48.996;8.334;2024-01-27T07:59:37;3.08;;;1.17;;
19059;SDS011;9663;48.996;8.334;2024-01-27T08:02:03;3.50;;;1.38;;
19059;SDS011;9663;48.996;8.334;2024-01-27T08:04:30;4.03;;;1.35;;
19059;SDS011;9663;48.996;8.334;2024-01-27T08:06:55;3.45;;;1.35;;
19059;SDS011;9663;48.996;8.334;2024-01-27T08:09:21;3.72;;;1.30;;
19059;SDS011;9663;48.996;8.334;2024-01-27T08:11:47;3.22;;;1.30;;
19059;SDS011;9663;48.996;8.334;2024-01-27T08:14:17;5.72;;;1.38;;
19059;SDS011;9663;48.996;8.334;2024-01-27T08:16:43;3.33;;;1.38;;
19059;SDS011;9663;48.996;8.334;2024-01-27T08:19:09;3.03;;;1.20;;
19059;SDS011;9663;48.996;8.334;2024-01-27T08:21:35;3.80;;;1.60;;
19059;SDS011;9663;48.996;8.334;2024-01-27T08:24:00;3.38;;;1.40;;
19059;SDS011;9663;48.996;8.334;2024-01-27T08:26:26;3.95;;;1.45;;
19059;SDS011;9663;48.996;8.334;2024-01-27T08:28:52;4.15;;;1.40;;
19059;SDS011;9663;48.996;8.334;2024-01-27T08:31:19;3.60;;;1.17;;
19059;SDS011;9663;48.996;8.334;2024-01-27T08:33:45;4.25;;;1.42;;
19059;SDS011;9663;48.996;8.334;2024-01-27T08:36:14;4.72;;;1.73;;
19059;SDS011;9663;48.996;8.334;2024-01-27T08:38:40;4.53;;;1.63;;
19059;SDS011;9663;48.996;8.334;2024-01-27T08:41:05;5.30;;;1.80;;
19059;SDS011;9663;48.996;8.334;2024-01-27T08:43:31;3.85;;;1.40;;
19059;SDS011;9663;48.996;8.334;2024-01-27T08:45:57;3.22;;;1.30;;
19059;SDS011;9663;48.996;8.334;2024-01-27T08:48:25;4.40;;;1.55;;
19059;SDS011;9663;48.996;8.334;2024-01-27T08:50:51;4.13;;;1.70;;
19059;SDS011;9663;48.996;8.334;2024-01-27T08:53:16;3.60;;;1.25;;
19059;SDS011;9663;48.996;8.334;2024-01-27T08:55:42;3.78;;;1.33;;
19059;SDS011;9663;48.996;8.334;2024-01-27T08:58:07;4.10;;;1.45;;
19059;SDS011;9663;48.996;8.334;2024-01-27T09:00:33;4.32;;;1.45;;
19059;SDS011;9663;48.996;8.334;2024-01-27T09:02:59;3.13;;;1.33;;
19059;SDS011;9663;48.996;8.334;2024-01-27T09:05:24;3.80;;;1.60;;
19059;SDS011;9663;48.996;8.334;2024-01-27T09:07:50;3.72;;;1.58;;
19059;SDS011;9663;48.996;8.334;2024-01-27T09:10:16;4.80;;;1.60;;
19059;SDS011;9663;48.996;8.334;2024-01-27T09:12:42;4.63;;;1.83;;
19059;SDS011;9663;48.996;8.334;2024-01-27T09:15:09;3.58;;;1.52;;
19059;SDS011;9663;48.996;8.334;2024-01-27T09:17:35;5.80;;;1.83;;
19059;SDS011;9663;48.996;8.334;2024-01-27T09:20:00;4.30;;;2.00;;
19059;SDS011;9663;48.996;8.334;2024-01-27T09:22:27;4.05;;;1.90;;
19059;SDS011;9663;48.996;8.334;2024-01-27T09:24:53;4.25;;;2.05;;
19059;SDS011;9663;48.996;8.334;2024-01-27T09:27:20;5.10;;;1.92;;
19059;SDS011;9663;48.996;8.334;2024-01-27T09:29:45;3.80;;;1.55;;
19059;SDS011;9663;48.996;8.334;2024-01-27T09:32:11;6.07;;;2.10;;
19059;SDS011;9663;48.996;8.334;2024-01-27T09:34:37;4.00;;;1.92;;
19059;SDS011;9663;48.996;8.334;2024-01-27T09:37:03;3.78;;;1.60;;
19059;SDS011;9663;48.996;8.334;2024-01-27T09:39:29;3.70;;;1.80;;
19059;SDS011;9663;48.996;8.334;2024-01-27T09:41:56;4.30;;;1.67;;
19059;SDS011;9663;48.996;8.334;2024-01-27T09:44:29;5.25;;;2.03;;
19059;SDS011;9663;48.996;8.334;2024-01-27T09:46:56;3.90;;;1.70;;
19059;SDS011;9663;48.996;8.334;2024-01-27T09:49:22;4.15;;;1.67;;
19059;SDS011;9663;48.996;8.334;2024-01-27T09:51:51;5.70;;;2.47;;
19059;SDS011;9663;48.996;8.334;2024-01-27T09:54:17;5.78;;;2.13;;
19059;SDS011;9663;48.996;8.334;2024-01-27T09:56:45;4.18;;;1.98;;
19059;SDS011;9663;48.996;8.334;2024-01-27T09:59:11;4.60;;;1.80;;
19059;SDS011;9663;48.996;8.334;2024-01-27T10:01:39;4.93;;;1.90;;
19059;SDS011;9663;48.996;8.334;2024-01-27T10:04:06;5.05;;;2.25;;
19059;SDS011;9663;48.996;8.334;2024-01-27T10:06:34;4.57;;;2.03;;
19059;SDS011;9663;48.996;8.334;2024-01-27T10:09:00;4.13;;;1.80;;
19059;SDS011;9663;48.996;8.334;2024-01-27T10:11:25;5.05;;;1.70;;
19059;SDS011;9663;48.996;8.334;2024-01-27T10:13:53;4.15;;;1.40;;
19059;SDS011;9663;48.996;8.334;2024-01-27T10:16:24;2.67;;;1.17;;
19059;SDS011;9663;48.996;8.334;2024-01-27T10:19:03;3.50;;;1.40;;
19059;SDS011;9663;48.996;8.334;2024-01-27T10:21:28;3.38;;;1.30;;
19059;SDS011;9663;48.996;8.334;2024-01-27T10:23:54;4.35;;;1.50;;
19059;SDS011;9663;48.996;8.334;2024-01-27T10:26:20;3.15;;;1.20;;
19059;SDS011;9663;48.996;8.334;2024-01-27T10:28:52;3.80;;;1.60;;
19059;SDS011;9663;48.996;8.334;2024-01-27T10:31:19;3.28;;;1.30;;
19059;SDS011;9663;48.996;8.334;2024-01-27T10:33:52;4.10;;;1.60;;
19059;SDS011;9663;48.996;8.334;2024-01-27T10:36:19;3.95;;;1.48;;
19059;SDS011;9663;48.996;8.334;2024-01-27T10:38:45;2.55;;;1.15;;
19059;SDS011;9663;48.996;8.334;2024-01-27T10:41:11;3.95;;;1.38;;
19059;SDS011;9663;48.996;8.334;2024-01-27T10:43:43;3.83;;;1.33;;
19059;SDS011;9663;48.996;8.334;2024-01-27T10:46:10;3.80;;;1.13;;
19059;SDS011;9663;48.996;8.334;2024-01-27T10:48:38;5.20;;;1.30;;
19059;SDS011;9663;48.996;8.334;2024-01-27T10:51:07;3.72;;;1.30;;
19059;SDS011;9663;48.996;8.334;2024-01-27T10:53:35;3.60;;;1.40;;
19059;SDS011;9663;48.996;8.334;2024-01-27T10:56:03;4.63;;;1.50;;
19059;SDS011;9663;48.996;8.334;2024-01-27T10:58:34;4.78;;;1.67;;
19059;SDS011;9663;48.996;8.334;2024-01-27T11:01:09;3.80;;;1.45;;
19059;SDS011;9663;48.996;8.334;2024-01-27T11:03:40;4.25;;;1.40;;
19059;SDS011;9663;48.996;8.334;2024-01-27T11:06:08;4.30;;;1.40;;
19059;SDS011;9663;48.996;8.334;2024-01-27T11:08:34;3.60;;;1.40;;
19059;SDS011;9663;48.996;8.334;2024-01-27T11:11:00;3.30;;;1.20;;
19059;SDS011;9663;48.996;8.334;2024-01-27T11:13:30;3.47;;;1.40;;
19059;SDS011;9663;48.996;8.334;2024-01-27T11:15:58;4.13;;;1.52;;
19059;SDS011;9663;48.996;8.334;2024-01-27T11:18:25;4.18;;;1.48;;
19059;SDS011;9663;48.996;8.334;2024-01-27T11:20:54;4.20;;;1.50;;
19059;SDS011;9663;48.996;8.334;2024-01-27T11:23:31;3.63;;;1.25;;
19059;SDS011;9663;48.996;8.334;2024-01-27T11:26:02;4.57;;;1.67;;
19059;SDS011;9663;48.996;8.334;2024-01-27T11:28:31;4.07;;;1.40;;
19059;SDS011;9663;48.996;8.334;2024-01-27T11:30:57;3.60;;;1.30;;
19059;SDS011;9663;48.996;8.334;2024-01-27T11:33:26;3.08;;;1.17;;
19059;SDS011;9663;48.996;8.334;2024-01-27T11:36:01;3.85;;;1.30;;
19059;SDS011;9663;48.996;8.334;2024-01-27T11:38:31;3.22;;;1.20;;
19059;SDS011;9663;48.996;8.334;2024-01-27T11:40:59;3.55;;;1.25;;
19059;SDS011;9663;48.996;8.334;2024-01-27T11:43:26;3.50;;;1.20;;
19059;SDS011;9663;48.996;8.334;2024-01-27T11:45:58;3.00;;;1.10;;
19059;SDS011;9663;48.996;8.334;2024-01-27T11:48:25;5.38;;;1.48;;
19059;SDS011;9663;48.996;8.334;2024-01-27T11:51:07;3.38;;;1.30;;
19059;SDS011;9663;48.996;8.334;2024-01-27T11:53:36;3.30;;;1.00;;
19059;SDS011;9663;48.996;8.334;2024-01-27T11:56:03;4.03;;;1.20;;
19059;SDS011;9663;48.996;8.334;2024-01-27T11:58:29;3.47;;;1.30;;
19059;SDS011;9663;48.996;8.334;2024-01-27T12:03:22;3.28;;;1.20;;
19059;SDS011;9663;48.996;8.334;2024-01-27T12:05:49;3.28;;;1.27;;
19059;SDS011;9663;48.996;8.334;2024-01-27T12:08:16;3.78;;;1.35;;
19059;SDS011;9663;48.996;8.334;2024-01-27T12:10:44;3.33;;;1.33;;
19059;SDS011;9663;48.996;8.334;2024-01-27T12:13:10;4.22;;;1.60;;
19059;SDS011;9663;48.996;8.334;2024-01-27T12:15:36;4.53;;;1.55;;
19059;SDS011;9663;48.996;8.334;2024-01-27T12:18:06;3.28;;;1.30;;
19059;SDS011;9663;48.996;8.334;2024-01-27T12:20:32;3.85;;;1.40;;
19059;SDS011;9663;48.996;8.334;2024-01-27T12:23:04;3.78;;;1.20;;
19059;SDS011;9663;48.996;8.334;2024-01-27T12:25:32;4.78;;;1.80;;
19059;SDS011;9663;48.996;8.334;2024-01-27T12:28:05;4.47;;;1.45;;
19059;SDS011;9663;48.996;8.334;2024-01-27T12:30:32;3.45;;;1.20;;
19059;SDS011;9663;48.996;8.334;2024-01-27T12:32:59;3.13;;;1.25;;
19059;SDS011;9663;48.996;8.334;2024-01-27T12:35:26;4.00;;;1.60;;
19059;SDS011;9663;48.996;8.334;2024-01-27T12:37:52;3.97;;;1.38;;
19059;SDS011;9663;48.996;8.334;2024-01-27T12:40:19;3.50;;;1.30;;
19059;SDS011;9663;48.996;8.334;2024-01-27T12:42:46;2.78;;;1.02;;
19059;SDS011;9663;48.996;8.334;2024-01-27T12:45:16;3.33;;;1.25;;
19059;SDS011;9663;48.996;8.334;2024-01-27T12:47:42;2.92;;;1.02;;
19059;SDS011;9663;48.996;8.334;2024-01-27T12:50:08;3.63;;;1.40;;
19059;SDS011;9663;48.996;8.334;2024-01-27T12:52:34;2.75;;;1.10;;
19059;SDS011;9663;48.996;8.334;2024-01-27T12:55:00;3.07;;;1.20;;
19059;SDS011;9663;48.996;8.334;2024-01-27T12:57:25;3.33;;;1.10;;
19059;SDS011;9663;48.996;8.334;2024-01-27T12:59:51;3.45;;;1.08;;
19059;SDS011;9663;48.996;8.334;2024-01-27T13:02:17;4.10;;;1.20;;
19059;SDS011;9663;48.996;8.334;2024-01-27T13:04:43;3.17;;;1.10;;
19059;SDS011;9663;48.996;8.334;2024-01-27T13:07:08;4.18;;;1.73;;
19059;SDS011;9663;48.996;8.334;2024-01-27T13:09:35;3.78;;;1.10;;
19059;SDS011;9663;48.996;8.334;2024-01-27T13:12:02;3.97;;;1.17;;
19059;SDS011;9663;48.996;8.334;2024-01-27T13:14:28;4.72;;;1.20;;
19059;SDS011;9663;48.996;8.334;2024-01-27T13:16:54;5.50;;;1.42;;
19059;SDS011;9663;48.996;8.334;2024-01-27T13:19:21;4.15;;;1.20;;
19059;SDS011;9663;48.996;8.334;2024-01-27T13:21:47;3.70;;;1.33;;
19059;SDS011;9663;48.996;8.334;2024-01-27T13:24:13;3.10;;;1.20;;
19059;SDS011;9663;48.996;8.334;2024-01-27T13:26:39;3.08;;;1.20;;
19059;SDS011;9663;48.996;8.334;2024-01-27T13:29:05;4.70;;;1.40;;
19059;SDS011;9663;48.996;8.334;2024-01-27T13:31:32;3.83;;;1.33;;
19059;SDS011;9663;48.996;8.334;2024-01-27T13:33:58;5.40;;;1.35;;
19059;SDS011;9663;48.996;8.334;2024-01-27T13:36:27;4.60;;;1.35;;
19059;SDS011;9663;48.996;8.334;2024-01-27T13:38:53;3.42;;;1.20;;
19059;SDS011;9663;48.996;8.334;2024-01-27T13:41:18;3.75;;;1.63;;
19059;SDS011;9663;48.996;8.334;2024-01-27T13:43:44;7.03;;;1.50;;
19059;SDS011;9663;48.996;8.334;2024-01-27T13:46:10;3.92;;;1.33;;
19059;SDS011;9663;48.996;8.334;2024-01-27T13:48:36;4.97;;;1.60;;
19059;SDS011;9663;48.996;8.334;2024-01-27T13:51:03;4.85;;;1.27;;
19059;SDS011;9663;48.996;8.334;2024-01-27T13:53:29;3.22;;;1.30;;
19059;SDS011;9663;48.996;8.334;2024-01-27T13:55:55;4.00;;;1.30;;
19059;SDS011;9663;48.996;8.334;2024-01-27T13:58:21;4.07;;;1.70;;
19059;SDS011;9663;48.996;8.334;2024-01-27T14:00:47;4.65;;;1.60;;
19059;SDS011;9663;48.996;8.334;2024-01-27T14:03:13;5.35;;;1.75;;
19059;SDS011;9663;48.996;8.334;2024-01-27T14:05:39;4.18;;;1.40;;
19059;SDS011;9663;48.996;8.334;2024-01-27T14:08:06;6.57;;;1.83;;
19059;SDS011;9663;48.996;8.334;2024-01-27T14:10:33;3.60;;;1.33;;
19059;SDS011;9663;48.996;8.334;2024-01-27T14:13:00;3.70;;;1.40;;
19059;SDS011;9663;48.996;8.334;2024-01-27T14:15:29;3.85;;;1.30;;
19059;SDS011;9663;48.996;8.334;2024-01-27T14:17:55;5.15;;;1.25;;
19059;SDS011;9663;48.996;8.334;2024-01-27T14:20:21;3.60;;;1.48;;
19059;SDS011;9663;48.996;8.334;2024-01-27T14:22:47;4.70;;;1.20;;
19059;SDS011;9663;48.996;8.334;2024-01-27T14:25:12;3.58;;;1.20;;
19059;SDS011;9663;48.996;8.334;2024-01-27T14:27:38;4.80;;;1.25;;
19059;SDS011;9663;48.996;8.334;2024-01-27T14:30:04;4.15;;;1.30;;
19059;SDS011;9663;48.996;8.334;2024-01-27T14:32:33;3.25;;;1.15;;
19059;SDS011;9663;48.996;8.334;2024-01-27T14:34:59;3.30;;;1.23;;
19059;SDS011;9663;48.996;8.334;2024-01-27T14:37:24;4.10;;;1.30;;
19059;SDS011;9663;48.996;8.334;2024-01-27T14:39:50;3.35;;;1.20;;
19059;SDS011;9663;48.996;8.334;2024-01-27T14:42:16;4.03;;;1.63;;
19059;SDS011;9663;48.996;8.334;2024-01-27T14:44:42;5.20;;;1.70;;
19059;SDS011;9663;48.996;8.334;2024-01-27T14:47:10;4.40;;;1.48;;
19059;SDS011;9663;48.996;8.334;2024-01-27T14:49:36;3.95;;;1.33;;
19059;SDS011;9663;48.996;8.334;2024-01-27T14:52:06;3.38;;;1.20;;
19059;SDS011;9663;48.996;8.334;2024-01-27T14:54:33;3.78;;;1.40;;
19059;SDS011;9663;48.996;8.334;2024-01-27T14:57:03;4.00;;;1.42;;
19059;SDS011;9663;48.996;8.334;2024-01-27T14:59:35;4.00;;;1.40;;